Time;durP1;ratioP1;P1;durP2;ratioP2;P2;SDS_P1;SDS_P2;PMS_P1;PMS_P2;Temp;Humidity;BMP_temperature;BMP_pressure;BME280_temperature;BME280_humidity;BME280_pressure;Samples;Min_cycle;Max_cycle;Signal;HPM_P1;HPM_P2
2022/09/30 00:01:17;;;;;;;7.82;2.50;;;8.70;99.90;;;;;;5070874;28;21309;-60
2022/09/30 00:03:43;;;;;;;4.40;2.90;;;9.00;99.90;;;;;;5069408;28;20074;-60
2022/09/30 00:06:10;;;;;;;5.82;2.53;;;7.80;99.90;;;;;;5068837;28;20389;-60
2022/09/30 00:08:37;;;;;;;5.50;2.60;;;8.00;99.90;;;;;;5069781;28;20036;-60
2022/09/30 00:11:04;;;;;;;4.28;2.60;;;7.40;99.90;;;;;;5068410;28;20070;-60
2022/09/30 00:13:31;;;;;;;5.60;2.25;;;7.10;99.90;;;;;;5068499;28;20043;-60
2022/09/30 00:15:58;;;;;;;8.30;3.03;;;9.20;99.90;;;;;;5068607;28;20047;-60
2022/09/30 00:18:24;;;;;;;4.70;2.70;;;7.00;99.90;;;;;;5067480;28;20767;-60
2022/09/30 00:20:49;;;;;;;4.93;2.90;;;7.60;99.90;;;;;;5069160;28;20047;-60
2022/09/30 00:23:15;;;;;;;6.43;2.70;;;8.00;99.90;;;;;;5069872;28;20043;-60
2022/09/30 00:25:41;;;;;;;29.35;3.38;;;7.20;99.90;;;;;;5069476;28;20127;-60
2022/09/30 00:28:07;;;;;;;12.15;3.60;;;7.30;99.90;;;;;;5071090;28;20036;-60
2022/09/30 00:30:33;;;;;;;9.10;2.90;;;6.80;99.90;;;;;;5070976;28;20036;-60
2022/09/30 00:32:59;;;;;;;95.82;5.47;;;6.60;99.90;;;;;;5069545;28;20036;-59
2022/09/30 00:35:25;;;;;;;43.28;5.38;;;6.70;99.90;;;;;;5073732;28;20054;-60
2022/09/30 00:37:51;;;;;;;13.75;3.60;;;6.80;99.90;;;;;;5074792;28;20036;-59
2022/09/30 00:40:19;;;;;;;49.47;4.18;;;6.40;99.90;;;;;;5073237;28;20051;-60
2022/09/30 00:42:45;;;;;;;33.65;3.45;;;6.60;99.90;;;;;;5072939;28;20035;-59
2022/09/30 00:45:12;;;;;;;13.60;2.80;;;8.00;99.90;;;;;;5074337;28;20413;-59
2022/09/30 00:47:55;;;;;;;28.40;3.20;;;6.40;99.90;;;;;;5075190;28;20108;-60
2022/09/30 00:50:45;;;;;;;11.73;2.75;;;6.30;99.90;;;;;;5073171;28;20074;-60
2022/09/30 00:53:34;;;;;;;7.82;2.15;;;6.20;99.90;;;;;;5073180;28;20058;-60
2022/09/30 00:56:13;;;;;;;132.02;5.65;;;6.30;99.90;;;;;;5072839;28;20515;-59
2022/09/30 00:58:48;;;;;;;45.67;3.78;;;7.30;99.90;;;;;;5073850;28;21163;-59
2022/09/30 01:01:14;;;;;;;20.10;2.95;;;6.40;99.90;;;;;;5073624;28;20036;-60
2022/09/30 01:04:00;;;;;;;105.68;4.85;;;6.30;99.90;;;;;;5071574;28;20070;-60
2022/09/30 01:06:26;;;;;;;34.47;4.40;;;6.30;99.90;;;;;;5072536;28;20239;-60
2022/09/30 01:08:52;;;;;;;6.35;1.73;;;6.10;99.90;;;;;;5073126;28;20082;-59
2022/09/30 01:11:18;;;;;;;24.70;1.80;;;6.20;99.90;;;;;;5072907;28;20032;-59
2022/09/30 01:13:49;;;;;;;31.20;2.65;;;6.80;99.90;;;;;;5072752;28;20063;-59
2022/09/30 01:16:35;;;;;;;54.90;3.03;;;5.90;99.90;;;;;;5072634;28;20044;-59
2022/09/30 01:19:10;;;;;;;43.70;3.90;;;5.90;99.90;;;;;;5071797;28;20105;-59
2022/09/30 01:21:39;;;;;;;16.40;2.55;;;6.00;99.90;;;;;;5071495;28;20036;-59
2022/09/30 01:24:35;;;;;;;8.20;3.10;;;5.90;99.90;;;;;;5072211;28;20075;-60
2022/09/30 01:27:42;;;;;;;47.33;3.50;;;5.80;99.90;;;;;;5072240;28;20090;-59
2022/09/30 01:30:21;;;;;;;41.53;3.33;;;5.70;99.90;;;;;;5039278;28;20146;-60
2022/09/30 01:33:26;;;;;;;15.68;2.88;;;5.70;99.90;;;;;;5072859;28;20071;-59
2022/09/30 01:36:05;;;;;;;15.70;2.42;;;5.80;99.90;;;;;;5073099;28;20051;-60
2022/09/30 01:38:50;;;;;;;26.20;3.10;;;5.60;99.90;;;;;;5072921;28;20123;-60
2022/09/30 01:41:23;;;;;;;42.35;3.97;;;5.70;99.90;;;;;;5072174;28;20044;-60
2022/09/30 01:44:05;;;;;;;96.45;4.70;;;5.60;99.90;;;;;;5070655;28;20059;-59
2022/09/30 01:46:46;;;;;;;48.78;3.08;;;5.50;99.90;;;;;;5069695;28;20415;-59
2022/09/30 01:49:24;;;;;;;40.15;2.50;;;5.60;99.90;;;;;;5069802;28;20110;-59
2022/09/30 01:52:27;;;;;;;16.23;1.98;;;5.60;99.90;;;;;;5071031;28;20032;-59
2022/09/30 01:54:58;;;;;;;34.35;3.08;;;5.40;99.90;;;;;;5061924;28;20052;-59
2022/09/30 01:57:32;;;;;;;2.92;1.40;;;5.40;99.90;;;;;;5071201;28;20054;-60
2022/09/30 02:00:16;;;;;;;4.88;2.15;;;5.30;99.90;;;;;;5072230;28;20400;-59
2022/09/30 02:02:47;;;;;;;3.28;2.10;;;5.50;99.90;;;;;;5073476;28;20816;-60
2022/09/30 02:05:25;;;;;;;4.93;2.50;;;5.40;99.90;;;;;;5072149;28;21078;-59
2022/09/30 02:07:59;;;;;;;10.00;2.70;;;5.30;99.90;;;;;;5072325;28;20044;-59
2022/09/30 02:10:57;;;;;;;5.68;2.25;;;5.40;99.90;;;;;;5068923;28;20397;-59
2022/09/30 02:13:49;;;;;;;4.25;2.38;;;5.40;99.90;;;;;;5055668;28;20052;-59
2022/09/30 02:16:26;;;;;;;10.00;2.20;;;5.30;99.90;;;;;;5035252;28;20056;-60
2022/09/30 02:18:57;;;;;;;15.15;2.10;;;5.20;99.90;;;;;;5070510;28;20047;-59
2022/09/30 02:21:29;;;;;;;9.82;2.67;;;5.20;99.90;;;;;;5071206;28;20036;-59
2022/09/30 02:23:59;;;;;;;23.80;3.47;;;5.10;99.90;;;;;;5071559;28;20039;-59
2022/09/30 02:26:29;;;;;;;8.82;2.75;;;5.10;99.90;;;;;;5071082;28;20036;-59
2022/09/30 02:29:23;;;;;;;5.10;2.20;;;5.20;99.90;;;;;;5072894;28;20052;-59
2022/09/30 02:31:52;;;;;;;4.97;2.25;;;5.00;99.90;;;;;;5070078;28;20056;-59
2022/09/30 02:34:42;;;;;;;5.95;2.50;;;5.00;99.90;;;;;;5070300;28;20082;-59
2022/09/30 02:37:23;;;;;;;11.00;2.67;;;5.20;99.90;;;;;;5070961;28;20394;-59
2022/09/30 02:40:10;;;;;;;14.57;2.00;;;5.00;99.90;;;;;;5071369;28;20039;-59
2022/09/30 02:42:37;;;;;;;13.07;2.65;;;4.80;99.90;;;;;;5069247;28;20067;-59
2022/09/30 02:45:09;;;;;;;23.20;2.85;;;5.10;99.90;;;;;;5068931;28;20036;-59
2022/09/30 02:47:57;;;;;;;47.35;3.60;;;5.00;99.90;;;;;;5068333;28;20047;-58
2022/09/30 02:50:30;;;;;;;27.85;3.28;;;4.90;99.90;;;;;;5068636;28;20539;-59
2022/09/30 02:53:50;;;;;;;7.38;2.55;;;5.00;99.90;;;;;;5069877;28;20142;-59
2022/09/30 02:56:30;;;;;;;15.45;3.30;;;5.00;99.90;;;;;;4988841;28;20450;-59
2022/09/30 02:58:57;;;;;;;17.00;2.78;;;5.10;99.90;;;;;;5071022;28;20409;-59
2022/09/30 03:01:24;;;;;;;23.25;3.55;;;5.00;99.90;;;;;;5071556;28;20036;-59
2022/09/30 03:04:13;;;;;;;14.27;2.90;;;5.00;99.90;;;;;;5070027;28;20044;-59
2022/09/30 03:06:39;;;;;;;51.88;4.07;;;4.90;99.90;;;;;;5069310;28;20070;-59
2022/09/30 03:09:06;;;;;;;60.85;4.72;;;5.00;99.90;;;;;;5067799;28;20044;-59
2022/09/30 03:11:32;;;;;;;77.88;4.95;;;;;;;;;;5071856;28;20046;-59
2022/09/30 03:14:08;;;;;;;51.38;4.78;;;4.90;99.90;;;;;;5070894;28;20442;-59
2022/09/30 03:16:52;;;;;;;37.55;4.30;;;5.20;99.90;;;;;;5071344;28;20036;-59
2022/09/30 03:19:41;;;;;;;33.53;4.63;;;5.20;99.90;;;;;;5067522;28;20065;-59
2022/09/30 03:22:10;;;;;;;17.20;3.83;;;5.00;99.90;;;;;;5069415;28;20326;-59
2022/09/30 03:25:01;;;;;;;14.82;3.97;;;5.20;99.90;;;;;;5071304;28;20105;-59
2022/09/30 03:28:01;;;;;;;17.30;4.47;;;5.20;99.90;;;;;;5048851;28;20466;-59
2022/09/30 03:30:31;;;;;;;33.88;5.65;;;5.30;99.90;;;;;;5071766;28;20482;-59
2022/09/30 03:33:16;;;;;;;11.68;5.03;;;5.20;99.90;;;;;;5071059;28;20735;-59
2022/09/30 03:35:49;;;;;;;12.10;4.70;;;5.10;99.90;;;;;;5069144;28;20051;-59
2022/09/30 03:38:33;;;;;;;5.32;3.88;;;5.20;99.90;;;;;;5070466;28;20102;-59
2022/09/30 03:41:12;;;;;;;27.38;4.57;;;5.30;99.90;;;;;;5069780;28;20504;-59
2022/09/30 03:43:48;;;;;;;24.25;3.75;;;5.20;99.90;;;;;;5070949;28;20036;-59
2022/09/30 03:46:57;;;;;;;6.78;3.40;;;5.10;99.90;;;;;;5069669;28;20075;-59
2022/09/30 03:49:27;;;;;;;7.03;3.38;;;5.20;99.90;;;;;;5061782;28;20404;-59
2022/09/30 03:51:53;;;;;;;46.45;4.32;;;4.50;99.90;;;;;;5069933;28;20077;-59
2022/09/30 03:54:19;;;;;;;66.68;4.50;;;;;;;;;;5070897;28;20040;-58
2022/09/30 03:56:45;;;;;;;90.75;5.95;;;;;;;;;;5067606;28;20028;-59
2022/09/30 03:59:22;;;;;;;52.42;4.43;;;5.00;99.90;;;;;;5068372;28;20048;-59
2022/09/30 04:01:48;;;;;;;73.85;5.70;;;;;;;;;;5070727;28;20032;-59
2022/09/30 04:04:13;;;;;;;83.75;6.57;;;5.10;99.90;;;;;;5069115;28;20119;-59
2022/09/30 04:06:39;;;;;;;23.48;5.35;;;5.00;99.90;;;;;;5067835;28;20050;-59
2022/09/30 04:09:05;;;;;;;80.53;6.57;;;4.90;99.90;;;;;;5070194;28;20043;-59
2022/09/30 04:11:30;;;;;;;76.68;6.53;;;5.00;99.90;;;;;;5071081;28;20059;-59
2022/09/30 04:13:57;;;;;;;63.67;5.13;;;;;;;;;;5070352;28;20096;-59
2022/09/30 04:16:23;;;;;;;51.35;5.00;;;;;;;;;;5068188;28;20064;-59
2022/09/30 04:18:49;;;;;;;37.53;4.05;;;5.10;99.90;;;;;;5069131;28;20580;-59
2022/09/30 04:21:16;;;;;;;33.03;3.92;;;;;;;;;;5069307;28;20108;-59
2022/09/30 04:23:42;;;;;;;18.42;3.47;;;4.90;99.90;;;;;;5068582;28;20047;-59
2022/09/30 04:26:11;;;;;;;12.90;3.30;;;4.80;99.90;;;;;;5068210;28;20040;-59
2022/09/30 04:28:37;;;;;;;11.90;3.90;;;4.80;99.90;;;;;;5069039;28;20063;-59
2022/09/30 04:31:05;;;;;;;13.15;3.90;;;5.00;99.90;;;;;;5070982;28;20525;-59
2022/09/30 04:33:31;;;;;;;13.23;4.25;;;;;;;;;;5070765;28;20043;-59
2022/09/30 04:35:58;;;;;;;11.77;3.55;;;4.70;99.90;;;;;;5070227;28;21073;-59
2022/09/30 04:38:25;;;;;;;17.58;3.90;;;5.00;99.90;;;;;;5069820;28;20067;-59
2022/09/30 04:40:53;;;;;;;26.88;4.03;;;4.80;99.90;;;;;;5069271;28;20060;-59
2022/09/30 04:43:21;;;;;;;15.57;3.30;;;4.70;99.90;;;;;;5069987;28;20504;-59
2022/09/30 04:45:47;;;;;;;56.60;4.88;;;4.70;99.90;;;;;;5069533;28;20392;-58
2022/09/30 04:48:14;;;;;;;32.15;3.85;;;;;;;;;;5068849;28;20177;-58
2022/09/30 04:50:40;;;;;;;15.20;3.90;;;4.70;99.90;;;;;;5068707;28;20450;-58
2022/09/30 04:53:07;;;;;;;6.32;3.85;;;4.70;99.90;;;;;;5069454;28;20122;-58
2022/09/30 04:55:33;;;;;;;26.08;4.88;;;;;;;;;;5070317;28;20036;-58
2022/09/30 04:57:59;;;;;;;20.25;3.90;;;;;;;;;;5068756;28;20044;-58
2022/09/30 05:00:26;;;;;;;20.02;5.18;;;;;;;;;;5069851;28;21036;-58
2022/09/30 05:02:52;;;;;;;26.88;4.13;;;4.90;99.90;;;;;;5071260;28;20131;-58
2022/09/30 05:05:18;;;;;;;40.85;4.38;;;4.90;99.90;;;;;;5070095;28;20067;-58
2022/09/30 05:07:44;;;;;;;36.38;4.45;;;;;;;;;;5068801;28;20036;-58
2022/09/30 05:10:11;;;;;;;26.30;4.60;;;4.90;99.90;;;;;;5068949;28;20788;-57
2022/09/30 05:12:39;;;;;;;35.78;5.68;;;4.80;99.90;;;;;;5070169;28;20774;-57
2022/09/30 05:15:06;;;;;;;37.90;5.30;;;4.90;99.90;;;;;;5069247;28;20040;-58
2022/09/30 05:17:32;;;;;;;69.20;6.40;;;4.80;99.90;;;;;;5069189;28;20040;-58
2022/09/30 05:19:58;;;;;;;27.73;5.07;;;5.00;99.90;;;;;;5068801;28;20040;-58
2022/09/30 05:22:24;;;;;;;26.80;5.90;;;4.90;99.90;;;;;;5073802;28;20082;-58
2022/09/30 05:24:51;;;;;;;16.70;4.60;;;4.80;99.90;;;;;;5072473;28;20046;-58
2022/09/30 05:27:18;;;;;;;27.27;5.13;;;4.70;99.90;;;;;;5069849;28;20163;-58
2022/09/30 05:29:44;;;;;;;12.32;4.28;;;4.90;99.90;;;;;;5071169;28;20043;-58
2022/09/30 05:32:10;;;;;;;18.73;4.40;;;;;;;;;;5074886;28;20125;-58
2022/09/30 05:34:37;;;;;;;11.48;4.07;;;4.80;99.90;;;;;;5072343;28;20042;-57
2022/09/30 05:37:04;;;;;;;21.48;3.45;;;4.70;99.90;;;;;;5070062;28;20127;-58
2022/09/30 05:39:30;;;;;;;8.57;3.78;;;4.70;99.90;;;;;;5071309;28;20544;-58
2022/09/30 05:41:57;;;;;;;7.65;4.20;;;4.50;99.90;;;;;;5071759;28;20515;-58
2022/09/30 05:44:23;;;;;;;47.58;32.45;;;;;;;;;;5072863;28;20040;-58
2022/09/30 05:46:49;;;;;;;35.03;26.35;;;;;;;;;;5069680;28;20048;-57
2022/09/30 05:49:15;;;;;;;32.78;25.90;;;4.70;99.90;;;;;;5070972;28;20110;-58
2022/09/30 05:51:41;;;;;;;12.55;9.90;;;;;;;;;;5071657;28;20856;-58
2022/09/30 05:54:08;;;;;;;15.35;10.32;;;4.50;99.90;;;;;;5071551;28;20400;-57
2022/09/30 05:56:34;;;;;;;17.80;11.63;;;;;;;;;;5070634;28;20062;-57
2022/09/30 05:59:00;;;;;;;15.68;4.80;;;4.50;99.90;;;;;;5072366;28;20500;-57
2022/09/30 06:01:26;;;;;;;8.25;3.30;;;;;;;;;;5073814;28;20032;-57
2022/09/30 06:03:52;;;;;;;12.43;3.35;;;;;;;;;;5072876;28;20050;-58
2022/09/30 06:06:20;;;;;;;7.15;3.33;;;;;;;;;;5071029;28;20075;-58
2022/09/30 06:08:46;;;;;;;11.13;3.08;;;;;;;;;;5072855;28;20139;-57
2022/09/30 06:11:18;;;;;;;10.13;3.78;;;4.70;99.90;;;;;;5070629;28;20496;-58
2022/09/30 06:13:46;;;;;;;13.80;4.10;;;4.80;99.90;;;;;;5070117;28;20694;-58
2022/09/30 06:16:12;;;;;;;7.90;3.97;;;4.80;99.90;;;;;;5069870;28;20078;-57
2022/09/30 06:18:40;;;;;;;8.52;4.82;;;5.10;99.90;;;;;;5069034;28;20571;-58
2022/09/30 06:21:07;;;;;;;7.13;4.30;;;5.00;99.90;;;;;;5071377;28;20050;-58
2022/09/30 06:23:34;;;;;;;9.20;4.50;;;5.00;99.90;;;;;;5071420;28;20044;-57
2022/09/30 06:26:00;;;;;;;7.30;3.83;;;5.00;99.90;;;;;;5071434;28;20704;-58
2022/09/30 06:28:27;;;;;;;8.02;4.97;;;5.00;99.90;;;;;;5070845;28;20108;-58
2022/09/30 06:30:53;;;;;;;6.75;4.38;;;5.30;99.90;;;;;;5070000;28;20044;-58
2022/09/30 06:33:19;;;;;;;6.22;4.35;;;5.20;99.90;;;;;;5069819;28;20153;-58
2022/09/30 06:35:46;;;;;;;9.18;4.10;;;5.30;99.90;;;;;;5068116;28;20047;-57
2022/09/30 06:38:15;;;;;;;5.90;4.18;;;5.50;99.90;;;;;;5067544;28;20463;-58
2022/09/30 06:40:42;;;;;;;7.18;5.10;;;5.60;99.90;;;;;;5069097;28;20078;-58
2022/09/30 06:43:10;;;;;;;8.07;6.28;;;5.70;99.90;;;;;;5069623;28;20067;-58
2022/09/30 06:45:36;;;;;;;8.45;6.45;;;6.80;99.90;;;;;;5068901;28;20050;-57
2022/09/30 06:48:04;;;;;;;8.38;5.20;;;6.70;99.90;;;;;;5066294;28;20439;-58
2022/09/30 06:50:31;;;;;;;6.68;5.32;;;7.00;99.90;;;;;;5070437;28;20052;-57
2022/09/30 06:53:02;;;;;;;8.32;5.97;;;8.20;99.90;;;;;;5070344;28;20341;-57
2022/09/30 06:55:29;;;;;;;9.10;5.65;;;7.50;99.90;;;;;;5070281;28;20043;-58
2022/09/30 06:57:55;;;;;;;7.25;5.40;;;9.20;99.90;;;;;;5070243;28;20583;-57
2022/09/30 07:00:23;;;;;;;7.00;4.78;;;7.60;99.90;;;;;;5069840;28;20063;-58
2022/09/30 07:02:48;;;;;;;9.30;5.93;;;7.60;99.90;;;;;;5072427;28;20036;-58
2022/09/30 07:05:16;;;;;;;7.88;5.72;;;7.70;99.90;;;;;;5071488;28;20106;-58
2022/09/30 07:07:43;;;;;;;7.65;6.80;;;7.80;99.90;;;;;;5084843;28;20119;-58
2022/09/30 07:10:10;;;;;;;8.02;6.32;;;8.70;99.90;;;;;;5070482;28;20050;-58
2022/09/30 07:12:35;;;;;;;7.22;5.72;;;8.20;99.90;;;;;;5070306;28;20039;-58
2022/09/30 07:15:01;;;;;;;6.95;5.55;;;9.10;99.90;;;;;;5103605;27;20039;-58
2022/09/30 07:17:28;;;;;;;7.50;5.47;;;9.10;99.90;;;;;;5069955;28;20043;-58
2022/09/30 07:19:53;;;;;;;5.93;4.82;;;9.70;99.90;;;;;;5069702;28;20036;-57
2022/09/30 07:22:26;;;;;;;6.63;4.72;;;9.90;99.90;;;;;;5071390;28;20047;-57
2022/09/30 07:24:52;;;;;;;7.95;5.00;;;10.00;99.90;;;;;;5070490;28;20039;-58
2022/09/30 07:27:18;;;;;;;8.32;4.65;;;10.80;99.90;;;;;;5070224;28;20076;-58
2022/09/30 07:29:44;;;;;;;6.32;4.53;;;11.30;99.90;;;;;;5070021;28;20079;-58
2022/09/30 07:32:11;;;;;;;5.70;3.80;;;12.80;99.90;;;;;;5070918;28;20341;-58
2022/09/30 07:34:41;;;;;;;5.85;3.90;;;11.60;99.90;;;;;;5069694;28;20082;-58
2022/09/30 07:37:13;;;;;;;7.10;3.78;;;12.40;99.90;;;;;;5069112;28;20174;-58
2022/09/30 07:39:45;;;;;;;5.95;3.85;;;12.90;98.50;;;;;;5068397;28;20446;-58
2022/09/30 07:42:13;;;;;;;5.97;4.07;;;13.60;92.20;;;;;;5069881;28;20090;-58
2022/09/30 07:44:42;;;;;;;6.18;4.10;;;14.30;76.20;;;;;;5067608;28;20067;-58
2022/09/30 07:47:10;;;;;;;6.22;4.20;;;14.10;59.30;;;;;;5069478;28;20157;-58
2022/09/30 07:49:36;;;;;;;6.25;5.03;;;13.90;58.80;;;;;;5068803;28;20492;-58
2022/09/30 07:52:03;;;;;;;7.25;4.80;;;13.70;67.80;;;;;;5068860;28;20369;-58
2022/09/30 07:54:31;;;;;;;7.20;4.50;;;13.30;74.60;;;;;;5069442;28;20032;-58
2022/09/30 07:56:58;;;;;;;7.22;4.93;;;15.00;78.70;;;;;;5068870;28;20070;-58
2022/09/30 07:59:26;;;;;;;7.50;5.20;;;12.70;84.20;;;;;;5069561;28;20044;-59
2022/09/30 08:01:51;;;;;;;7.57;5.50;;;12.20;90.90;;;;;;5070648;28;20395;-58
2022/09/30 08:04:19;;;;;;;7.70;5.35;;;12.10;93.90;;;;;;5069516;28;20111;-57
2022/09/30 08:06:50;;;;;;;8.48;5.80;;;11.90;96.00;;;;;;5067503;28;20047;-58
2022/09/30 08:09:19;;;;;;;8.60;5.60;;;11.70;97.20;;;;;;5068561;28;20052;-58
2022/09/30 08:11:45;;;;;;;6.75;4.50;;;11.70;99.90;;;;;;5068841;28;20389;-58
2022/09/30 08:14:14;;;;;;;8.77;6.50;;;11.70;98.20;;;;;;5069378;28;20081;-58
2022/09/30 08:16:39;;;;;;;9.13;5.88;;;11.50;98.10;;;;;;5067979;28;20044;-58
2022/09/30 08:19:05;;;;;;;9.38;7.25;;;12.00;98.70;;;;;;5068771;28;20121;-57
2022/09/30 08:21:31;;;;;;;8.40;6.95;;;11.40;99.90;;;;;;5069802;28;20044;-58
2022/09/30 08:23:57;;;;;;;10.52;7.25;;;11.50;99.90;;;;;;5070413;28;20036;-57
2022/09/30 08:26:23;;;;;;;9.43;6.60;;;11.70;99.90;;;;;;5069052;28;20098;-58
2022/09/30 08:28:49;;;;;;;9.07;7.53;;;13.40;99.90;;;;;;5067843;28;20046;-58
2022/09/30 08:31:18;;;;;;;10.60;7.32;;;12.20;99.90;;;;;;5070086;28;20048;-58
2022/09/30 08:33:44;;;;;;;15.15;8.75;;;12.70;99.90;;;;;;5068266;28;20047;-57
2022/09/30 08:36:14;;;;;;;12.82;8.07;;;12.10;99.90;;;;;;5068403;28;20040;-57
2022/09/30 08:38:40;;;;;;;27.85;9.55;;;11.40;99.90;;;;;;5068679;28;20051;-58
2022/09/30 08:41:23;;;;;;;22.77;8.75;;;11.50;99.90;;;;;;5068085;28;20110;-57
2022/09/30 08:44:11;;;;;;;27.13;6.82;;;11.50;99.90;;;;;;5070456;28;20118;-58
2022/09/30 08:46:43;;;;;;;53.42;7.53;;;11.40;99.90;;;;;;5068757;28;20392;-58
2022/09/30 08:49:35;;;;;;;35.65;7.68;;;11.00;99.90;;;;;;5068893;28;20052;-58
2022/09/30 08:52:04;;;;;;;59.17;9.43;;;11.30;99.90;;;;;;5068868;28;20504;-58
2022/09/30 08:54:33;;;;;;;74.03;9.35;;;11.50;99.90;;;;;;5068285;28;20054;-57
2022/09/30 08:57:02;;;;;;;43.45;8.65;;;9.20;99.90;;;;;;5073139;28;20487;-58
2022/09/30 08:59:36;;;;;;;33.70;8.13;;;13.40;99.90;;;;;;5073251;28;20043;-58
2022/09/30 09:02:15;;;;;;;27.05;7.32;;;11.50;99.90;;;;;;5072890;28;20205;-58
2022/09/30 09:04:40;;;;;;;24.20;8.68;;;11.60;99.90;;;;;;5072250;28;20412;-58
2022/09/30 09:07:20;;;;;;;14.93;7.30;;;11.60;99.90;;;;;;5072449;28;20048;-58
2022/09/30 09:10:04;;;;;;;13.02;7.07;;;11.80;99.90;;;;;;5073076;28;20046;-58
2022/09/30 09:12:45;;;;;;;13.82;7.25;;;11.80;99.90;;;;;;5072696;28;20050;-57
2022/09/30 09:15:41;;;;;;;12.48;7.00;;;13.30;99.90;;;;;;5072312;28;20054;-57
2022/09/30 09:18:33;;;;;;;7.60;6.07;;;11.70;99.90;;;;;;5073127;28;20052;-57
2022/09/30 09:21:02;;;;;;;9.05;6.63;;;11.70;99.90;;;;;;5072916;28;20055;-57
2022/09/30 09:23:31;;;;;;;7.82;6.40;;;12.20;99.90;;;;;;5070996;28;20040;-57
2022/09/30 09:25:58;;;;;;;9.63;7.15;;;11.70;99.90;;;;;;5071676;28;20052;-59
2022/09/30 09:28:35;;;;;;;10.70;7.20;;;11.90;99.90;;;;;;5071189;28;20040;-56
2022/09/30 09:31:02;;;;;;;8.02;6.97;;;12.00;99.90;;;;;;5071480;28;20040;-58
2022/09/30 09:33:31;;;;;;;8.43;7.05;;;12.40;99.90;;;;;;5073278;28;20044;-58
2022/09/30 09:36:41;;;;;;;7.28;5.72;;;12.60;99.90;;;;;;5073010;28;20082;-58
2022/09/30 09:39:33;;;;;;;8.48;6.55;;;12.80;99.90;;;;;;5069632;28;20733;-58
2022/09/30 09:42:24;;;;;;;10.18;7.13;;;12.70;99.90;;;;;;5072378;28;20531;-58
2022/09/30 09:45:13;;;;;;;7.63;6.45;;;12.80;99.90;;;;;;5071113;28;20044;-58
2022/09/30 09:47:44;;;;;;;9.80;6.95;;;12.70;99.90;;;;;;5071768;28;20078;-57
2022/09/30 09:50:22;;;;;;;8.40;6.57;;;13.00;99.90;;;;;;5072110;28;20474;-57
2022/09/30 09:53:19;;;;;;;8.95;6.28;;;12.90;99.90;;;;;;5071527;28;20448;-57
2022/09/30 09:55:45;;;;;;;9.07;6.90;;;12.90;99.90;;;;;;5072275;28;20517;-57
2022/09/30 09:58:13;;;;;;;7.63;6.53;;;13.20;99.90;;;;;;5071167;28;20069;-58
2022/09/30 10:03:22;;;;;;;10.70;7.88;;;13.30;99.90;;;;;;5068491;28;20044;-58
2022/09/30 10:06:12;;;;;;;9.60;7.70;;;13.60;99.90;;;;;;5069442;28;20036;-58
2022/09/30 10:08:51;;;;;;;10.38;8.38;;;13.40;99.90;;;;;;5068654;28;20051;-58
2022/09/30 10:11:20;;;;;;;8.93;6.20;;;13.80;99.70;;;;;;5068943;28;20080;-58
2022/09/30 10:13:47;;;;;;;11.88;8.07;;;13.70;99.90;;;;;;5071653;28;20067;-58
2022/09/30 10:16:34;;;;;;;12.00;8.13;;;14.00;98.70;;;;;;5067065;28;20059;-58
2022/09/30 10:19:15;;;;;;;8.65;6.80;;;14.30;99.90;;;;;;5067966;28;20129;-46
2022/09/30 10:21:41;;;;;;;8.55;7.43;;;14.50;97.10;;;;;;5068746;28;20074;-45
2022/09/30 10:24:27;;;;;;;8.88;6.60;;;14.60;96.70;;;;;;5070732;28;20078;-46
2022/09/30 10:26:53;;;;;;;6.97;5.63;;;15.30;90.00;;;;;;5072855;28;20036;-45
2022/09/30 10:29:30;;;;;;;10.85;5.88;;;15.00;90.90;;;;;;5071461;28;20424;-46
2022/09/30 10:31:58;;;;;;;8.70;5.18;;;15.40;89.20;;;;;;5071712;28;20109;-46
2022/09/30 10:34:39;;;;;;;7.25;4.20;;;15.40;89.50;;;;;;5070357;28;20683;-47
2022/09/30 10:37:19;;;;;;;8.98;3.83;;;15.60;41.70;;;;;;5069572;28;20040;-47
2022/09/30 10:40:01;;;;;;;5.43;3.70;;;15.50;5.50;;;;;;5071908;28;20366;-45
2022/09/30 10:42:30;;;;;;;5.47;3.63;;;15.90;44.30;;;;;;5103119;27;20068;-48
2022/09/30 10:45:23;;;;;;;5.63;3.88;;;15.80;31.50;;;;;;5069191;28;20771;-45
2022/09/30 10:47:52;;;;;;;5.65;3.10;;;16.20;16.30;;;;;;5061875;28;20048;-45
2022/09/30 10:50:21;;;;;;;4.97;2.80;;;16.10;5.30;;;;;;5071724;28;20089;-49
2022/09/30 10:53:03;;;;;;;4.55;2.63;;;16.10;1.00;;;;;;5071561;28;20051;-45
2022/09/30 10:55:39;;;;;;;4.72;2.67;;;16.10;1.00;;;;;;5070461;28;20518;-46
2022/09/30 10:58:27;;;;;;;5.25;3.20;;;15.80;1.00;;;;;;5072500;28;20154;-50
2022/09/30 11:01:02;;;;;;;4.13;2.40;;;15.90;1.00;;;;;;5072377;28;20401;-47
2022/09/30 11:03:37;;;;;;;7.38;2.53;;;15.70;1.00;;;;;;5070674;28;20040;-47
2022/09/30 11:06:05;;;;;;;6.60;2.90;;;15.90;1.00;;;;;;5071472;28;20063;-46
2022/09/30 11:09:06;;;;;;;6.13;2.80;;;16.10;1.00;;;;;;5072202;28;20404;-47
2022/09/30 11:11:44;;;;;;;6.30;2.50;;;16.30;1.00;;;;;;5029476;28;20056;-45
2022/09/30 11:14:31;;;;;;;4.28;2.38;;;16.30;1.00;;;;;;5067664;28;20096;-49
2022/09/30 11:17:23;;;;;;;4.20;2.50;;;16.30;99.90;;;;;;5071402;28;20072;-45
2022/09/30 11:20:18;;;;;;;4.85;2.55;;;16.30;1.00;;;;;;5071066;28;20076;-46
2022/09/30 11:22:55;;;;;;;4.97;2.63;;;16.50;1.00;;;;;;5071492;28;20052;-45
2022/09/30 11:25:49;;;;;;;4.25;2.15;;;16.60;99.90;;;;;;5071016;28;20408;-47
2022/09/30 11:28:20;;;;;;;4.70;1.85;;;16.50;1.00;;;;;;5069835;28;20075;-46
2022/09/30 11:31:10;;;;;;;3.27;1.93;;;16.60;99.90;;;;;;5069790;28;20040;-46
2022/09/30 11:33:49;;;;;;;4.55;2.10;;;16.60;19.10;;;;;;5070681;28;20325;-48
2022/09/30 11:36:39;;;;;;;4.28;2.22;;;16.60;99.90;;;;;;5069845;28;20246;-48
2022/09/30 11:39:26;;;;;;;6.03;1.70;;;16.70;99.90;;;;;;5069069;28;20469;-46
2022/09/30 11:42:06;;;;;;;7.88;2.22;;;16.60;99.90;;;;;;5071043;28;20075;-50
2022/09/30 11:44:35;;;;;;;5.45;2.00;;;17.00;99.90;;;;;;5069256;28;20218;-49
2022/09/30 11:47:23;;;;;;;5.68;2.30;;;16.70;99.90;;;;;;5070342;28;24629;-47
2022/09/30 11:50:07;;;;;;;7.75;2.60;;;16.50;99.90;;;;;;5069037;28;20044;-47
2022/09/30 11:53:06;;;;;;;5.97;2.40;;;16.20;99.90;;;;;;5068994;28;20043;-49
2022/09/30 11:55:57;;;;;;;4.13;2.10;;;15.80;99.90;;;;;;5068325;28;20052;-48
2022/09/30 11:58:28;;;;;;;4.55;1.98;;;15.40;99.90;;;;;;5067778;28;20451;-46
2022/09/30 12:01:06;;;;;;;4.43;1.92;;;15.50;99.90;;;;;;5068124;28;20906;-50
2022/09/30 12:03:41;;;;;;;3.85;1.80;;;15.50;99.90;;;;;;5071391;28;20153;-45
2022/09/30 12:06:14;;;;;;;2.13;1.30;;;15.60;99.90;;;;;;5072727;28;20040;-46
2022/09/30 12:08:51;;;;;;;3.88;1.50;;;15.80;99.90;;;;;;5069415;28;20131;-46
2022/09/30 12:11:22;;;;;;;3.95;1.70;;;15.90;1.00;;;;;;5069566;28;20040;-47
2022/09/30 12:13:56;;;;;;;4.45;1.48;;;15.90;99.90;;;;;;5070906;28;20032;-45
2022/09/30 12:16:27;;;;;;;5.85;1.40;;;16.10;1.00;;;;;;5070988;28;20041;-50
2022/09/30 12:19:23;;;;;;;3.10;1.38;;;16.20;1.00;;;;;;5069236;28;20040;-47
2022/09/30 12:22:10;;;;;;;4.18;1.67;;;16.30;99.90;;;;;;5070495;28;20412;-49
2022/09/30 12:24:39;;;;;;;3.08;1.40;;;16.50;99.90;;;;;;5069720;28;20036;-48
2022/09/30 12:27:13;;;;;;;4.55;1.60;;;16.30;99.90;;;;;;5069576;28;20044;-46
2022/09/30 12:32:41;;;;;;;3.53;1.60;;;16.40;99.90;;;;;;5072536;28;20932;-47
2022/09/30 12:35:42;;;;;;;3.70;1.77;;;16.40;99.90;;;;;;5073724;28;20445;-46
2022/09/30 12:38:47;;;;;;;3.35;1.50;;;16.50;99.90;;;;;;5072236;28;21145;-46
2022/09/30 12:41:28;;;;;;;3.88;1.85;;;16.20;99.90;;;;;;5070210;28;20431;-45
2022/09/30 12:44:05;;;;;;;5.07;1.55;;;15.90;99.90;;;;;;5074114;28;20168;-47
2022/09/30 12:46:57;;;;;;;3.97;1.60;;;15.80;99.90;;;;;;5072776;28;20052;-45
2022/09/30 12:49:25;;;;;;;7.68;1.90;;;15.70;99.90;;;;;;5069967;28;20164;-45
2022/09/30 12:51:56;;;;;;;5.13;1.40;;;15.80;99.90;;;;;;5073544;28;20052;-45
2022/09/30 12:54:34;;;;;;;3.65;1.50;;;15.90;99.90;;;;;;5072200;28;20043;-46
2022/09/30 12:57:03;;;;;;;3.33;1.90;;;15.80;99.90;;;;;;5070578;28;20040;-46
2022/09/30 12:59:47;;;;;;;3.55;2.35;;;15.60;99.90;;;;;;5070975;28;20044;-47
2022/09/30 13:02:30;;;;;;;3.70;1.90;;;15.60;99.90;;;;;;5073602;28;20079;-47
2022/09/30 13:05:31;;;;;;;3.20;1.92;;;15.40;99.90;;;;;;5071283;28;20040;-46
2022/09/30 13:08:17;;;;;;;4.88;2.00;;;15.20;99.90;;;;;;5074230;28;20397;-47
2022/09/30 13:10:54;;;;;;;4.20;2.13;;;15.40;99.90;;;;;;5050612;28;20043;-49
2022/09/30 13:13:22;;;;;;;5.30;2.40;;;15.30;99.90;;;;;;5070334;28;20040;-48
2022/09/30 13:15:50;;;;;;;6.22;2.40;;;15.30;99.90;;;;;;5073573;28;20547;-48
2022/09/30 13:18:18;;;;;;;5.88;2.10;;;15.30;99.90;;;;;;5073564;28;20125;-44
2022/09/30 13:21:07;;;;;;;3.88;2.20;;;15.30;99.90;;;;;;5072826;28;20079;-46
2022/09/30 13:23:41;;;;;;;3.83;2.10;;;15.70;99.90;;;;;;5072144;28;20055;-46
2022/09/30 13:26:25;;;;;;;3.78;2.00;;;15.60;99.90;;;;;;5072467;28;20087;-48
2022/09/30 13:28:54;;;;;;;4.45;2.20;;;15.70;99.90;;;;;;5072520;28;20411;-49
2022/09/30 13:31:21;;;;;;;4.90;2.00;;;15.30;99.90;;;;;;5071123;28;20443;-45
2022/09/30 13:34:01;;;;;;;4.82;2.47;;;15.20;99.90;;;;;;5070711;28;20583;-45
2022/09/30 13:36:50;;;;;;;4.82;2.28;;;15.40;99.90;;;;;;5067804;28;20051;-50